Airfield :
LOGIN :

Register | Disclaimer

   EN    FR    IT 

 










Legend :    VFR   Marginal VFR   IFR   Intensive IFR   Very Intensive IFR
Visi :
Ceiling :
>= 8 km
>= 3000ft
5 to 8 km
1000 to 3000 ft
1500m to 5 km
500 to 1000 ft
800 to 1500m
200 to 500 ft
< 800m
< 200 ft
Symbols :   Thunderstorms  Fog  Heavy snow  Heavy precipitations  Wind > 20 kt
SIGMETs :     Misc.  Thunderstorms  Icing  Turbulence  Mountain Waves  Volcanic Ashes






- Airport Elevation : 327 ft
- IATA code : BHX


EGBB - Birmingham

CURRENT METAR :
  • 170420Z 28003KT 6000 BKN028 07/06 Q1008

EXPIRED METARs :
  • 170350Z 00000KT 6000 BKN023 06/06 Q1008
  • 170320Z 27001KT 5000 BR FEW016 OVC024 07/06 Q1008
  • 170250Z 24003KT 4500 BR SCT014 BKN020 07/06 Q1008
  • 170220Z 23003KT 3700 BR SCT010 BKN014 OVC019 06/06 Q1008
  • 170150Z 22004KT 4600 BR BKN011 OVC015 07/06 Q1008

TAF TAF EGBB
Valid from the 17 at 00:00 until the 18 at 00:00 UTC


162256Z 1700/1724 22004KT 9999 SCT009 BKN030
TEMPO 1700/1724 6000 -RA FEW004 BKN009
PROB30 1700/1712 2000 DZ BR BKN004
BECMG 1710/1713 36010KT
PROB30 1719/1724 2000 BR BKN004
ATIS : +44 121 780 0910



MET'MAP, your aeronautical weather chart ! - Copyright ORBIFLY December 2007 - Disclaimer

ORBIFLY MET'MAP TEAM :

Programming & Development : Alexandra Zaïnal
Concept & Development : Baudouin d'Aumeries
Co-Development & Prog : Marc-Olivier Méhu
Technical & hardware support : Manuel Goepfert

Contact : metmap@orbifly.com




SOURCES & CREDITS :

   NOAA